DAUO

Guemar Airport

Airport
ICAO code
DAUO
IATA Code
ELU
Summary
ICAO Region
AFI
ICAO Territory
Location

, El Oued

Serving
Guemar
Elevation
203 ft
Coordinates
33° 30' 41" N , 6° 46' 36" E
Metar
DAUO 040800Z 30014KT CAVOK 13/01 Q1018

Runways

Designator Length Width Surface Rops
2/20 2000 30 ASP No/No
13/31 3000 45 ASP No/No

Airport map

Aerial View

SKYbrary Partners:

Safety knowledge contributed by: